Aswan, Egypt
Current Conditions -  °F | °C
As of 2:00 AM on Tuesday 23 Dec 2014 (Local Time) from HESN Reporting Station
Clear Clear  
Wind Chill: 55°   Ceiling: Unl
Heat Index: 55°   Visibility: 6mi
Dew Point: 41°   Wind: 6mph
Humidity: 58%   Direction: 340°NNW
Pressure: 30.09"   Gusts: NA
Location:  24.08°N, 32.92°E
Report Text: HESN 230000Z 34005KT CAVOK 13/05 Q1019 NOSIG
Loading
Personal Weather Stations






























Interactive Weather Map New forecast layout! Learn more

10-Day Weather Forecast

Advertisements
Track Severe Weather on mobile